sensor_id;sensor_type;location;lat;lon;timestamp;P1;durP1;ratioP1;P2;durP2;ratioP2
6852;SDS011;3465;42.144;24.722;2023-06-05T00:02:10;11.77;;;3.07;;
6852;SDS011;3465;42.144;24.722;2023-06-05T00:04:35;8.03;;;2.87;;
6852;SDS011;3465;42.144;24.722;2023-06-05T00:07:01;7.73;;;3.40;;
6852;SDS011;3465;42.144;24.722;2023-06-05T00:09:27;8.63;;;2.90;;
6852;SDS011;3465;42.144;24.722;2023-06-05T00:11:52;8.37;;;2.93;;
6852;SDS011;3465;42.144;24.722;2023-06-05T00:14:18;9.93;;;3.20;;
6852;SDS011;3465;42.144;24.722;2023-06-05T00:16:43;6.30;;;2.70;;
6852;SDS011;3465;42.144;24.722;2023-06-05T00:19:08;12.07;;;3.53;;
6852;SDS011;3465;42.144;24.722;2023-06-05T00:21:34;6.37;;;2.97;;
6852;SDS011;3465;42.144;24.722;2023-06-05T00:23:59;12.77;;;3.10;;
6852;SDS011;3465;42.144;24.722;2023-06-05T00:26:25;9.27;;;3.00;;
6852;SDS011;3465;42.144;24.722;2023-06-05T00:28:51;10.63;;;2.60;;
6852;SDS011;3465;42.144;24.722;2023-06-05T00:31:16;12.53;;;3.63;;
6852;SDS011;3465;42.144;24.722;2023-06-05T00:33:46;10.10;;;2.90;;
6852;SDS011;3465;42.144;24.722;2023-06-05T00:36:12;10.30;;;2.93;;
6852;SDS011;3465;42.144;24.722;2023-06-05T00:38:38;9.10;;;3.07;;
6852;SDS011;3465;42.144;24.722;2023-06-05T00:41:03;9.87;;;3.30;;
6852;SDS011;3465;42.144;24.722;2023-06-05T00:43:29;6.63;;;2.77;;
6852;SDS011;3465;42.144;24.722;2023-06-05T00:45:58;11.20;;;3.20;;
6852;SDS011;3465;42.144;24.722;2023-06-05T00:48:27;8.67;;;2.70;;
6852;SDS011;3465;42.144;24.722;2023-06-05T00:50:54;8.50;;;2.93;;
6852;SDS011;3465;42.144;24.722;2023-06-05T00:53:20;6.30;;;2.63;;
6852;SDS011;3465;42.144;24.722;2023-06-05T00:55:48;6.97;;;2.67;;
6852;SDS011;3465;42.144;24.722;2023-06-05T00:58:13;7.90;;;2.87;;
6852;SDS011;3465;42.144;24.722;2023-06-05T01:00:40;10.40;;;2.80;;
6852;SDS011;3465;42.144;24.722;2023-06-05T01:03:05;7.97;;;3.37;;
6852;SDS011;3465;42.144;24.722;2023-06-05T01:05:33;5.53;;;2.60;;
6852;SDS011;3465;42.144;24.722;2023-06-05T01:07:59;7.00;;;2.93;;
6852;SDS011;3465;42.144;24.722;2023-06-05T01:10:28;13.23;;;2.90;;
6852;SDS011;3465;42.144;24.722;2023-06-05T01:13:08;7.87;;;3.10;;
6852;SDS011;3465;42.144;24.722;2023-06-05T01:15:45;7.37;;;2.67;;
6852;SDS011;3465;42.144;24.722;2023-06-05T01:18:11;11.03;;;3.00;;
6852;SDS011;3465;42.144;24.722;2023-06-05T01:20:40;8.07;;;2.87;;
6852;SDS011;3465;42.144;24.722;2023-06-05T01:23:07;8.77;;;2.70;;
6852;SDS011;3465;42.144;24.722;2023-06-05T01:25:33;10.27;;;2.97;;
6852;SDS011;3465;42.144;24.722;2023-06-05T01:30:31;9.97;;;2.80;;
6852;SDS011;3465;42.144;24.722;2023-06-05T01:33:03;8.27;;;2.70;;
6852;SDS011;3465;42.144;24.722;2023-06-05T01:35:37;6.67;;;2.80;;
6852;SDS011;3465;42.144;24.722;2023-06-05T01:38:05;7.77;;;2.63;;
6852;SDS011;3465;42.144;24.722;2023-06-05T01:40:31;9.13;;;3.13;;
6852;SDS011;3465;42.144;24.722;2023-06-05T01:42:59;10.23;;;3.50;;
6852;SDS011;3465;42.144;24.722;2023-06-05T01:45:26;9.67;;;3.87;;
6852;SDS011;3465;42.144;24.722;2023-06-05T01:47:52;11.40;;;4.47;;
6852;SDS011;3465;42.144;24.722;2023-06-05T01:50:20;14.03;;;4.80;;
6852;SDS011;3465;42.144;24.722;2023-06-05T01:52:46;9.80;;;4.53;;
6852;SDS011;3465;42.144;24.722;2023-06-05T01:55:18;10.80;;;4.50;;
6852;SDS011;3465;42.144;24.722;2023-06-05T01:57:48;12.20;;;4.70;;
6852;SDS011;3465;42.144;24.722;2023-06-05T02:00:14;14.57;;;4.33;;
6852;SDS011;3465;42.144;24.722;2023-06-05T02:02:44;14.57;;;4.47;;
6852;SDS011;3465;42.144;24.722;2023-06-05T02:05:10;13.47;;;5.10;;
6852;SDS011;3465;42.144;24.722;2023-06-05T02:07:41;9.63;;;4.80;;
6852;SDS011;3465;42.144;24.722;2023-06-05T02:10:09;10.47;;;4.50;;
6852;SDS011;3465;42.144;24.722;2023-06-05T02:12:34;7.83;;;4.37;;
6852;SDS011;3465;42.144;24.722;2023-06-05T02:15:02;11.80;;;4.93;;
6852;SDS011;3465;42.144;24.722;2023-06-05T02:17:29;10.20;;;4.93;;
6852;SDS011;3465;42.144;24.722;2023-06-05T02:19:54;10.70;;;4.23;;
6852;SDS011;3465;42.144;24.722;2023-06-05T02:22:19;9.80;;;3.70;;
6852;SDS011;3465;42.144;24.722;2023-06-05T02:24:45;11.90;;;3.87;;
6852;SDS011;3465;42.144;24.722;2023-06-05T02:27:10;8.67;;;3.27;;
6852;SDS011;3465;42.144;24.722;2023-06-05T02:29:37;7.87;;;3.10;;
6852;SDS011;3465;42.144;24.722;2023-06-05T02:32:03;6.70;;;3.10;;
6852;SDS011;3465;42.144;24.722;2023-06-05T02:34:30;14.97;;;3.43;;
6852;SDS011;3465;42.144;24.722;2023-06-05T02:36:56;12.47;;;3.37;;
6852;SDS011;3465;42.144;24.722;2023-06-05T02:39:21;10.80;;;3.03;;
6852;SDS011;3465;42.144;24.722;2023-06-05T02:41:46;7.77;;;2.70;;
6852;SDS011;3465;42.144;24.722;2023-06-05T02:44:12;9.23;;;2.77;;
6852;SDS011;3465;42.144;24.722;2023-06-05T02:46:37;17.10;;;3.47;;
6852;SDS011;3465;42.144;24.722;2023-06-05T02:49:03;9.13;;;3.37;;
6852;SDS011;3465;42.144;24.722;2023-06-05T02:51:28;6.90;;;2.80;;
6852;SDS011;3465;42.144;24.722;2023-06-05T02:53:54;9.70;;;2.80;;
6852;SDS011;3465;42.144;24.722;2023-06-05T02:56:19;5.20;;;2.73;;
6852;SDS011;3465;42.144;24.722;2023-06-05T02:58:46;8.70;;;2.70;;
6852;SDS011;3465;42.144;24.722;2023-06-05T03:01:12;6.27;;;2.73;;
6852;SDS011;3465;42.144;24.722;2023-06-05T03:03:37;8.50;;;2.80;;
6852;SDS011;3465;42.144;24.722;2023-06-05T03:06:03;9.40;;;2.80;;
6852;SDS011;3465;42.144;24.722;2023-06-05T03:08:32;8.50;;;2.97;;
6852;SDS011;3465;42.144;24.722;2023-06-05T03:10:59;10.17;;;2.83;;
6852;SDS011;3465;42.144;24.722;2023-06-05T03:13:25;8.50;;;3.00;;
6852;SDS011;3465;42.144;24.722;2023-06-05T03:15:50;9.20;;;3.10;;
6852;SDS011;3465;42.144;24.722;2023-06-05T03:18:19;8.77;;;2.90;;
6852;SDS011;3465;42.144;24.722;2023-06-05T03:20:46;6.73;;;2.60;;
6852;SDS011;3465;42.144;24.722;2023-06-05T03:23:15;6.30;;;2.60;;
6852;SDS011;3465;42.144;24.722;2023-06-05T03:25:41;13.60;;;2.97;;
6852;SDS011;3465;42.144;24.722;2023-06-05T03:28:07;8.53;;;3.10;;
6852;SDS011;3465;42.144;24.722;2023-06-05T03:30:32;8.10;;;2.67;;
6852;SDS011;3465;42.144;24.722;2023-06-05T03:32:57;9.23;;;3.23;;
6852;SDS011;3465;42.144;24.722;2023-06-05T03:35:23;6.70;;;2.77;;
6852;SDS011;3465;42.144;24.722;2023-06-05T03:37:48;11.67;;;2.63;;
6852;SDS011;3465;42.144;24.722;2023-06-05T03:40:14;7.53;;;2.50;;
6852;SDS011;3465;42.144;24.722;2023-06-05T03:42:39;9.30;;;2.77;;
6852;SDS011;3465;42.144;24.722;2023-06-05T03:45:05;10.37;;;2.80;;
6852;SDS011;3465;42.144;24.722;2023-06-05T03:47:31;8.50;;;2.80;;
6852;SDS011;3465;42.144;24.722;2023-06-05T03:49:59;5.67;;;2.30;;
6852;SDS011;3465;42.144;24.722;2023-06-05T03:52:25;10.17;;;3.20;;
6852;SDS011;3465;42.144;24.722;2023-06-05T03:54:51;5.93;;;2.83;;
6852;SDS011;3465;42.144;24.722;2023-06-05T03:57:20;10.17;;;3.27;;
6852;SDS011;3465;42.144;24.722;2023-06-05T03:59:45;12.03;;;2.70;;
6852;SDS011;3465;42.144;24.722;2023-06-05T04:02:12;6.93;;;2.77;;
6852;SDS011;3465;42.144;24.722;2023-06-05T04:04:37;17.63;;;3.00;;
6852;SDS011;3465;42.144;24.722;2023-06-05T04:07:03;8.03;;;2.87;;
6852;SDS011;3465;42.144;24.722;2023-06-05T04:09:28;9.23;;;3.17;;
6852;SDS011;3465;42.144;24.722;2023-06-05T04:11:54;9.00;;;3.10;;
6852;SDS011;3465;42.144;24.722;2023-06-05T04:14:20;7.63;;;2.67;;
6852;SDS011;3465;42.144;24.722;2023-06-05T04:16:45;10.63;;;3.10;;
6852;SDS011;3465;42.144;24.722;2023-06-05T04:19:11;10.10;;;2.80;;
6852;SDS011;3465;42.144;24.722;2023-06-05T04:21:37;10.40;;;3.10;;
6852;SDS011;3465;42.144;24.722;2023-06-05T04:24:07;14.87;;;2.87;;
6852;SDS011;3465;42.144;24.722;2023-06-05T04:26:35;8.07;;;2.80;;
6852;SDS011;3465;42.144;24.722;2023-06-05T04:29:01;6.57;;;2.97;;
6852;SDS011;3465;42.144;24.722;2023-06-05T04:31:30;12.23;;;4.90;;
6852;SDS011;3465;42.144;24.722;2023-06-05T04:33:57;14.13;;;4.97;;
6852;SDS011;3465;42.144;24.722;2023-06-05T04:36:23;15.30;;;4.90;;
6852;SDS011;3465;42.144;24.722;2023-06-05T04:38:49;8.40;;;4.00;;
6852;SDS011;3465;42.144;24.722;2023-06-05T04:41:15;16.37;;;3.93;;
6852;SDS011;3465;42.144;24.722;2023-06-05T04:43:40;15.07;;;4.50;;
6852;SDS011;3465;42.144;24.722;2023-06-05T04:46:06;11.00;;;3.63;;
6852;SDS011;3465;42.144;24.722;2023-06-05T04:48:31;11.20;;;3.63;;
6852;SDS011;3465;42.144;24.722;2023-06-05T04:50:59;14.63;;;3.70;;
6852;SDS011;3465;42.144;24.722;2023-06-05T04:53:25;10.03;;;3.27;;
6852;SDS011;3465;42.144;24.722;2023-06-05T04:55:53;14.20;;;3.77;;
6852;SDS011;3465;42.144;24.722;2023-06-05T04:58:19;7.93;;;3.63;;
6852;SDS011;3465;42.144;24.722;2023-06-05T05:00:44;9.63;;;3.67;;
6852;SDS011;3465;42.144;24.722;2023-06-05T05:03:10;10.67;;;3.77;;
6852;SDS011;3465;42.144;24.722;2023-06-05T05:05:38;10.93;;;3.57;;
6852;SDS011;3465;42.144;24.722;2023-06-05T05:08:04;12.57;;;4.03;;
6852;SDS011;3465;42.144;24.722;2023-06-05T05:10:30;13.17;;;3.60;;
6852;SDS011;3465;42.144;24.722;2023-06-05T05:12:57;8.60;;;3.87;;
6852;SDS011;3465;42.144;24.722;2023-06-05T05:15:26;6.80;;;3.20;;
6852;SDS011;3465;42.144;24.722;2023-06-05T05:17:52;13.47;;;4.07;;
6852;SDS011;3465;42.144;24.722;2023-06-05T05:20:17;9.83;;;3.43;;
6852;SDS011;3465;42.144;24.722;2023-06-05T05:22:43;12.67;;;3.70;;
6852;SDS011;3465;42.144;24.722;2023-06-05T05:25:09;8.80;;;3.63;;
6852;SDS011;3465;42.144;24.722;2023-06-05T05:27:34;7.23;;;3.37;;
6852;SDS011;3465;42.144;24.722;2023-06-05T05:29:59;13.50;;;3.50;;
6852;SDS011;3465;42.144;24.722;2023-06-05T05:32:25;11.53;;;3.93;;
6852;SDS011;3465;42.144;24.722;2023-06-05T05:34:50;12.87;;;3.87;;
6852;SDS011;3465;42.144;24.722;2023-06-05T05:37:16;6.30;;;3.40;;
6852;SDS011;3465;42.144;24.722;2023-06-05T05:39:41;13.03;;;3.70;;
6852;SDS011;3465;42.144;24.722;2023-06-05T05:42:07;9.47;;;3.60;;
6852;SDS011;3465;42.144;24.722;2023-06-05T05:44:32;11.23;;;3.70;;
6852;SDS011;3465;42.144;24.722;2023-06-05T05:46:58;9.73;;;3.97;;
6852;SDS011;3465;42.144;24.722;2023-06-05T05:49:23;13.33;;;4.37;;
6852;SDS011;3465;42.144;24.722;2023-06-05T05:51:49;14.27;;;4.70;;
6852;SDS011;3465;42.144;24.722;2023-06-05T05:54:15;10.30;;;4.37;;
6852;SDS011;3465;42.144;24.722;2023-06-05T05:56:41;16.10;;;5.33;;
6852;SDS011;3465;42.144;24.722;2023-06-05T05:59:07;19.20;;;5.10;;
6852;SDS011;3465;42.144;24.722;2023-06-05T06:01:33;9.75;;;4.93;;
6852;SDS011;3465;42.144;24.722;2023-06-05T06:03:58;15.88;;;4.40;;
6852;SDS011;3465;42.144;24.722;2023-06-05T06:06:24;8.25;;;4.15;;
6852;SDS011;3465;42.144;24.722;2023-06-05T06:08:49;14.60;;;5.63;;
6852;SDS011;3465;42.144;24.722;2023-06-05T06:11:15;11.93;;;5.28;;
6852;SDS011;3465;42.144;24.722;2023-06-05T06:13:41;13.57;;;5.10;;
6852;SDS011;3465;42.144;24.722;2023-06-05T06:16:08;9.27;;;4.55;;
6852;SDS011;3465;42.144;24.722;2023-06-05T06:18:33;6.93;;;3.88;;
6852;SDS011;3465;42.144;24.722;2023-06-05T06:20:59;12.55;;;4.75;;
6852;SDS011;3465;42.144;24.722;2023-06-05T06:23:25;9.18;;;4.88;;
6852;SDS011;3465;42.144;24.722;2023-06-05T06:25:50;14.00;;;4.20;;
6852;SDS011;3465;42.144;24.722;2023-06-05T06:28:16;19.83;;;5.18;;
6852;SDS011;3465;42.144;24.722;2023-06-05T06:30:42;15.23;;;5.28;;
6852;SDS011;3465;42.144;24.722;2023-06-05T06:33:08;16.00;;;4.80;;
6852;SDS011;3465;42.144;24.722;2023-06-05T06:35:33;20.15;;;5.57;;
6852;SDS011;3465;42.144;24.722;2023-06-05T06:37:59;17.35;;;6.28;;
6852;SDS011;3465;42.144;24.722;2023-06-05T06:40:25;20.38;;;7.28;;
6852;SDS011;3465;42.144;24.722;2023-06-05T06:42:53;14.23;;;6.82;;
6852;SDS011;3465;42.144;24.722;2023-06-05T06:45:19;15.43;;;7.18;;
6852;SDS011;3465;42.144;24.722;2023-06-05T06:47:45;19.65;;;7.65;;
6852;SDS011;3465;42.144;24.722;2023-06-05T06:50:11;20.45;;;8.32;;
6852;SDS011;3465;42.144;24.722;2023-06-05T06:52:38;23.30;;;7.75;;
6852;SDS011;3465;42.144;24.722;2023-06-05T06:55:04;19.42;;;8.70;;
6852;SDS011;3465;42.144;24.722;2023-06-05T06:57:31;18.25;;;8.95;;
6852;SDS011;3465;42.144;24.722;2023-06-05T06:59:56;19.13;;;9.80;;
6852;SDS011;3465;42.144;24.722;2023-06-05T07:02:22;20.60;;;9.57;;
6852;SDS011;3465;42.144;24.722;2023-06-05T07:04:48;20.67;;;9.60;;
6852;SDS011;3465;42.144;24.722;2023-06-05T07:07:14;20.73;;;9.98;;
6852;SDS011;3465;42.144;24.722;2023-06-05T07:09:42;22.42;;;10.90;;
6852;SDS011;3465;42.144;24.722;2023-06-05T07:12:12;20.10;;;9.73;;
6852;SDS011;3465;42.144;24.722;2023-06-05T07:14:39;16.38;;;9.73;;
6852;SDS011;3465;42.144;24.722;2023-06-05T07:17:05;21.77;;;9.73;;
6852;SDS011;3465;42.144;24.722;2023-06-05T07:19:31;24.95;;;10.68;;
6852;SDS011;3465;42.144;24.722;2023-06-05T07:21:58;20.35;;;10.13;;
6852;SDS011;3465;42.144;24.722;2023-06-05T07:24:24;23.42;;;9.85;;
6852;SDS011;3465;42.144;24.722;2023-06-05T07:26:55;24.50;;;11.07;;
6852;SDS011;3465;42.144;24.722;2023-06-05T07:29:21;18.35;;;10.38;;
6852;SDS011;3465;42.144;24.722;2023-06-05T07:31:50;23.00;;;11.35;;
6852;SDS011;3465;42.144;24.722;2023-06-05T07:34:20;21.40;;;10.75;;
6852;SDS011;3465;42.144;24.722;2023-06-05T07:36:47;22.05;;;10.73;;
6852;SDS011;3465;42.144;24.722;2023-06-05T07:39:13;20.58;;;10.10;;
6852;SDS011;3465;42.144;24.722;2023-06-05T07:41:40;22.88;;;11.00;;
6852;SDS011;3465;42.144;24.722;2023-06-05T07:44:09;18.25;;;9.98;;
6852;SDS011;3465;42.144;24.722;2023-06-05T07:46:36;19.02;;;10.15;;
6852;SDS011;3465;42.144;24.722;2023-06-05T07:49:02;21.27;;;10.35;;
6852;SDS011;3465;42.144;24.722;2023-06-05T07:51:27;22.25;;;10.57;;
6852;SDS011;3465;42.144;24.722;2023-06-05T07:53:53;15.52;;;8.80;;
6852;SDS011;3465;42.144;24.722;2023-06-05T07:56:18;20.02;;;9.40;;
6852;SDS011;3465;42.144;24.722;2023-06-05T07:58:44;26.77;;;10.23;;
6852;SDS011;3465;42.144;24.722;2023-06-05T08:01:10;18.95;;;9.50;;
6852;SDS011;3465;42.144;24.722;2023-06-05T08:03:37;19.33;;;9.95;;
6852;SDS011;3465;42.144;24.722;2023-06-05T08:06:02;21.38;;;9.98;;
6852;SDS011;3465;42.144;24.722;2023-06-05T08:08:28;20.48;;;10.02;;
6852;SDS011;3465;42.144;24.722;2023-06-05T08:10:54;21.10;;;8.80;;
6852;SDS011;3465;42.144;24.722;2023-06-05T08:13:20;18.52;;;9.25;;
6852;SDS011;3465;42.144;24.722;2023-06-05T08:15:45;17.02;;;8.88;;
6852;SDS011;3465;42.144;24.722;2023-06-05T08:18:11;16.88;;;8.70;;
6852;SDS011;3465;42.144;24.722;2023-06-05T08:20:36;16.60;;;9.27;;
6852;SDS011;3465;42.144;24.722;2023-06-05T08:23:01;21.38;;;9.00;;
6852;SDS011;3465;42.144;24.722;2023-06-05T08:25:30;16.02;;;9.45;;
6852;SDS011;3465;42.144;24.722;2023-06-05T08:27:56;13.80;;;8.73;;
6852;SDS011;3465;42.144;24.722;2023-06-05T08:30:21;18.23;;;9.30;;
6852;SDS011;3465;42.144;24.722;2023-06-05T08:32:47;16.00;;;9.32;;
6852;SDS011;3465;42.144;24.722;2023-06-05T08:35:12;18.98;;;9.13;;
6852;SDS011;3465;42.144;24.722;2023-06-05T08:37:38;15.65;;;8.50;;
6852;SDS011;3465;42.144;24.722;2023-06-05T08:40:04;18.23;;;8.45;;
6852;SDS011;3465;42.144;24.722;2023-06-05T08:42:35;16.60;;;9.00;;
6852;SDS011;3465;42.144;24.722;2023-06-05T08:45:03;14.13;;;8.30;;
6852;SDS011;3465;42.144;24.722;2023-06-05T08:47:32;15.27;;;8.68;;
6852;SDS011;3465;42.144;24.722;2023-06-05T08:50:02;14.63;;;8.38;;
6852;SDS011;3465;42.144;24.722;2023-06-05T08:52:29;15.35;;;8.18;;
6852;SDS011;3465;42.144;24.722;2023-06-05T08:55:00;14.27;;;8.13;;
6852;SDS011;3465;42.144;24.722;2023-06-05T08:57:28;13.38;;;7.60;;
6852;SDS011;3465;42.144;24.722;2023-06-05T08:59:54;18.83;;;8.88;;
6852;SDS011;3465;42.144;24.722;2023-06-05T09:02:20;18.00;;;7.75;;
6852;SDS011;3465;42.144;24.722;2023-06-05T09:04:45;11.82;;;6.72;;
6852;SDS011;3465;42.144;24.722;2023-06-05T09:07:12;13.52;;;7.05;;
6852;SDS011;3465;42.144;24.722;2023-06-05T09:09:37;10.60;;;7.38;;
6852;SDS011;3465;42.144;24.722;2023-06-05T09:12:08;13.55;;;7.53;;
6852;SDS011;3465;42.144;24.722;2023-06-05T09:14:34;13.88;;;6.95;;
6852;SDS011;3465;42.144;24.722;2023-06-05T09:17:01;22.40;;;7.78;;
6852;SDS011;3465;42.144;24.722;2023-06-05T09:19:38;13.63;;;7.60;;
6852;SDS011;3465;42.144;24.722;2023-06-05T09:22:05;15.93;;;6.90;;
6852;SDS011;3465;42.144;24.722;2023-06-05T09:24:32;11.25;;;6.57;;
6852;SDS011;3465;42.144;24.722;2023-06-05T09:27:02;13.95;;;6.22;;
6852;SDS011;3465;42.144;24.722;2023-06-05T09:29:37;9.40;;;5.28;;
6852;SDS011;3465;42.144;24.722;2023-06-05T09:32:25;9.10;;;5.15;;
6852;SDS011;3465;42.144;24.722;2023-06-05T09:34:54;11.23;;;5.35;;
6852;SDS011;3465;42.144;24.722;2023-06-05T09:37:32;8.73;;;5.07;;
6852;SDS011;3465;42.144;24.722;2023-06-05T09:40:00;11.52;;;6.05;;
6852;SDS011;3465;42.144;24.722;2023-06-05T09:42:32;11.65;;;4.80;;
6852;SDS011;3465;42.144;24.722;2023-06-05T09:44:58;11.20;;;4.95;;
6852;SDS011;3465;42.144;24.722;2023-06-05T09:47:25;9.43;;;4.85;;
6852;SDS011;3465;42.144;24.722;2023-06-05T09:49:50;8.95;;;4.60;;
6852;SDS011;3465;42.144;24.722;2023-06-05T09:52:16;9.02;;;4.20;;
6852;SDS011;3465;42.144;24.722;2023-06-05T09:54:42;9.10;;;4.40;;
6852;SDS011;3465;42.144;24.722;2023-06-05T09:57:10;6.57;;;4.18;;
6852;SDS011;3465;42.144;24.722;2023-06-05T09:59:52;8.00;;;4.10;;
6852;SDS011;3465;42.144;24.722;2023-06-05T10:02:19;7.13;;;3.60;;
6852;SDS011;3465;42.144;24.722;2023-06-05T10:04:48;6.05;;;3.22;;
6852;SDS011;3465;42.144;24.722;2023-06-05T10:07:16;7.53;;;3.90;;
6852;SDS011;3465;42.144;24.722;2023-06-05T10:09:43;4.53;;;3.35;;
6852;SDS011;3465;42.144;24.722;2023-06-05T10:12:09;4.90;;;3.30;;
6852;SDS011;3465;42.144;24.722;2023-06-05T10:14:35;4.88;;;3.40;;
6852;SDS011;3465;42.144;24.722;2023-06-05T10:17:02;9.75;;;3.70;;
6852;SDS011;3465;42.144;24.722;2023-06-05T10:19:28;8.15;;;3.78;;
6852;SDS011;3465;42.144;24.722;2023-06-05T10:21:54;9.63;;;3.90;;
6852;SDS011;3465;42.144;24.722;2023-06-05T10:24:24;7.78;;;3.53;;
6852;SDS011;3465;42.144;24.722;2023-06-05T10:30:15;6.13;;;3.42;;
6852;SDS011;3465;42.144;24.722;2023-06-05T10:38:30;6.25;;;3.58;;
6852;SDS011;3465;42.144;24.722;2023-06-05T10:40:58;4.80;;;3.03;;
6852;SDS011;3465;42.144;24.722;2023-06-05T10:49:35;8.23;;;3.85;;
6852;SDS011;3465;42.144;24.722;2023-06-05T10:51:45;7.93;;;3.65;;
6852;SDS011;3465;42.144;24.722;2023-06-05T10:54:12;6.20;;;3.55;;
6852;SDS011;3465;42.144;24.722;2023-06-05T10:59:37;8.95;;;3.45;;
6852;SDS011;3465;42.144;24.722;2023-06-05T11:07:22;7.93;;;3.50;;
6852;SDS011;3465;42.144;24.722;2023-06-05T11:20:56;7.63;;;2.60;;
6852;SDS011;3465;42.144;24.722;2023-06-05T11:23:22;6.10;;;2.70;;
6852;SDS011;3465;42.144;24.722;2023-06-05T11:25:52;7.90;;;2.42;;
6852;SDS011;3465;42.144;24.722;2023-06-05T11:28:40;5.60;;;3.33;;
6852;SDS011;3465;42.144;24.722;2023-06-05T11:31:07;6.38;;;2.90;;
6852;SDS011;3465;42.144;24.722;2023-06-05T11:33:32;7.20;;;2.97;;
6852;SDS011;3465;42.144;24.722;2023-06-05T11:36:01;5.97;;;2.60;;
6852;SDS011;3465;42.144;24.722;2023-06-05T11:38:29;8.02;;;2.78;;
6852;SDS011;3465;42.144;24.722;2023-06-05T11:40:55;7.60;;;3.03;;
6852;SDS011;3465;42.144;24.722;2023-06-05T11:43:20;5.55;;;2.63;;
6852;SDS011;3465;42.144;24.722;2023-06-05T11:45:54;7.10;;;3.30;;
6852;SDS011;3465;42.144;24.722;2023-06-05T11:48:22;9.63;;;3.25;;
6852;SDS011;3465;42.144;24.722;2023-06-05T11:53:19;7.72;;;2.70;;
6852;SDS011;3465;42.144;24.722;2023-06-05T11:55:45;10.20;;;3.67;;
6852;SDS011;3465;42.144;24.722;2023-06-05T11:58:29;7.32;;;3.70;;
6852;SDS011;3465;42.144;24.722;2023-06-05T12:03:34;10.90;;;4.22;;
6852;SDS011;3465;42.144;24.722;2023-06-05T12:06:01;7.57;;;4.13;;
6852;SDS011;3465;42.144;24.722;2023-06-05T12:08:30;7.90;;;4.00;;
6852;SDS011;3465;42.144;24.722;2023-06-05T12:11:00;9.35;;;3.80;;
6852;SDS011;3465;42.144;24.722;2023-06-05T12:13:45;7.35;;;4.00;;
6852;SDS011;3465;42.144;24.722;2023-06-05T12:16:11;7.82;;;3.50;;
6852;SDS011;3465;42.144;24.722;2023-06-05T12:18:37;7.20;;;3.33;;
6852;SDS011;3465;42.144;24.722;2023-06-05T12:21:02;4.90;;;2.80;;
6852;SDS011;3465;42.144;24.722;2023-06-05T12:23:28;4.45;;;2.58;;
6852;SDS011;3465;42.144;24.722;2023-06-05T12:26:00;4.88;;;2.50;;
6852;SDS011;3465;42.144;24.722;2023-06-05T12:28:27;5.85;;;2.50;;
6852;SDS011;3465;42.144;24.722;2023-06-05T12:30:53;6.32;;;2.30;;
6852;SDS011;3465;42.144;24.722;2023-06-05T12:33:19;6.00;;;2.67;;
6852;SDS011;3465;42.144;24.722;2023-06-05T12:35:45;4.45;;;2.60;;
6852;SDS011;3465;42.144;24.722;2023-06-05T12:38:11;5.82;;;2.40;;
6852;SDS011;3465;42.144;24.722;2023-06-05T12:40:37;9.40;;;2.70;;
6852;SDS011;3465;42.144;24.722;2023-06-05T12:43:02;4.20;;;2.50;;
6852;SDS011;3465;42.144;24.722;2023-06-05T12:45:28;4.90;;;2.30;;
6852;SDS011;3465;42.144;24.722;2023-06-05T12:47:55;5.35;;;2.47;;
6852;SDS011;3465;42.144;24.722;2023-06-05T12:50:20;5.07;;;2.63;;
6852;SDS011;3465;42.144;24.722;2023-06-05T12:52:46;6.70;;;2.67;;
6852;SDS011;3465;42.144;24.722;2023-06-05T12:55:12;4.78;;;2.67;;
6852;SDS011;3465;42.144;24.722;2023-06-05T12:57:38;6.70;;;3.25;;
6852;SDS011;3465;42.144;24.722;2023-06-05T13:00:04;4.88;;;2.40;;
6852;SDS011;3465;42.144;24.722;2023-06-05T13:02:38;8.68;;;2.78;;
6852;SDS011;3465;42.144;24.722;2023-06-05T13:05:05;6.05;;;2.60;;
6852;SDS011;3465;42.144;24.722;2023-06-05T13:07:31;3.72;;;2.53;;
6852;SDS011;3465;42.144;24.722;2023-06-05T13:09:56;5.05;;;2.70;;
6852;SDS011;3465;42.144;24.722;2023-06-05T13:12:22;7.72;;;2.35;;
6852;SDS011;3465;42.144;24.722;2023-06-05T13:14:47;7.72;;;2.42;;
6852;SDS011;3465;42.144;24.722;2023-06-05T13:17:13;6.18;;;2.42;;
6852;SDS011;3465;42.144;24.722;2023-06-05T13:19:39;6.68;;;2.88;;
6852;SDS011;3465;42.144;24.722;2023-06-05T13:22:05;10.50;;;2.80;;
6852;SDS011;3465;42.144;24.722;2023-06-05T13:24:30;8.82;;;3.28;;
6852;SDS011;3465;42.144;24.722;2023-06-05T13:26:56;3.30;;;2.70;;
6852;SDS011;3465;42.144;24.722;2023-06-05T13:29:22;11.00;;;2.90;;
6852;SDS011;3465;42.144;24.722;2023-06-05T13:31:47;10.40;;;2.75;;
6852;SDS011;3465;42.144;24.722;2023-06-05T13:34:13;8.80;;;2.60;;
6852;SDS011;3465;42.144;24.722;2023-06-05T13:36:38;6.32;;;2.83;;
6852;SDS011;3465;42.144;24.722;2023-06-05T13:39:04;7.10;;;2.72;;
6852;SDS011;3465;42.144;24.722;2023-06-05T13:41:29;4.97;;;2.72;;
6852;SDS011;3465;42.144;24.722;2023-06-05T13:43:55;6.00;;;3.08;;
6852;SDS011;3465;42.144;24.722;2023-06-05T13:46:22;5.10;;;2.80;;
6852;SDS011;3465;42.144;24.722;2023-06-05T13:48:48;5.88;;;2.78;;
6852;SDS011;3465;42.144;24.722;2023-06-05T13:51:13;7.50;;;2.80;;
6852;SDS011;3465;42.144;24.722;2023-06-05T13:53:39;4.40;;;2.40;;
6852;SDS011;3465;42.144;24.722;2023-06-05T13:56:04;8.13;;;2.75;;
6852;SDS011;3465;42.144;24.722;2023-06-05T13:58:30;6.28;;;2.80;;
6852;SDS011;3465;42.144;24.722;2023-06-05T14:00:57;6.38;;;2.65;;
6852;SDS011;3465;42.144;24.722;2023-06-05T14:03:23;5.38;;;2.97;;
6852;SDS011;3465;42.144;24.722;2023-06-05T14:05:48;4.97;;;2.53;;
6852;SDS011;3465;42.144;24.722;2023-06-05T14:08:15;5.43;;;3.13;;
6852;SDS011;3465;42.144;24.722;2023-06-05T14:10:40;5.97;;;2.70;;
6852;SDS011;3465;42.144;24.722;2023-06-05T14:13:05;3.33;;;2.60;;
6852;SDS011;3465;42.144;24.722;2023-06-05T14:15:31;5.75;;;3.10;;
6852;SDS011;3465;42.144;24.722;2023-06-05T14:17:59;7.18;;;3.03;;
6852;SDS011;3465;42.144;24.722;2023-06-05T14:20:26;6.90;;;2.50;;
6852;SDS011;3465;42.144;24.722;2023-06-05T14:22:52;4.80;;;2.70;;
6852;SDS011;3465;42.144;24.722;2023-06-05T14:25:17;6.57;;;2.95;;
6852;SDS011;3465;42.144;24.722;2023-06-05T14:27:42;5.63;;;2.95;;
6852;SDS011;3465;42.144;24.722;2023-06-05T14:30:08;7.25;;;2.83;;
6852;SDS011;3465;42.144;24.722;2023-06-05T14:32:34;4.50;;;2.47;;
6852;SDS011;3465;42.144;24.722;2023-06-05T14:35:00;4.55;;;2.85;;
6852;SDS011;3465;42.144;24.722;2023-06-05T14:37:26;3.92;;;2.47;;
6852;SDS011;3465;42.144;24.722;2023-06-05T14:39:51;5.63;;;2.70;;
6852;SDS011;3465;42.144;24.722;2023-06-05T14:42:17;5.50;;;2.40;;
6852;SDS011;3465;42.144;24.722;2023-06-05T14:44:42;5.00;;;2.55;;
6852;SDS011;3465;42.144;24.722;2023-06-05T14:47:07;7.57;;;2.33;;
6852;SDS011;3465;42.144;24.722;2023-06-05T14:49:33;5.68;;;2.60;;
6852;SDS011;3465;42.144;24.722;2023-06-05T14:51:58;7.05;;;2.78;;
6852;SDS011;3465;42.144;24.722;2023-06-05T14:54:23;5.68;;;2.67;;
6852;SDS011;3465;42.144;24.722;2023-06-05T14:56:49;6.28;;;2.92;;
6852;SDS011;3465;42.144;24.722;2023-06-05T14:59:14;5.10;;;2.40;;
6852;SDS011;3465;42.144;24.722;2023-06-05T15:01:40;6.28;;;2.55;;
6852;SDS011;3465;42.144;24.722;2023-06-05T15:04:05;5.88;;;2.60;;
6852;SDS011;3465;42.144;24.722;2023-06-05T15:06:31;15.82;;;2.92;;
6852;SDS011;3465;42.144;24.722;2023-06-05T15:08:56;3.50;;;2.50;;
6852;SDS011;3465;42.144;24.722;2023-06-05T15:11:22;4.32;;;2.40;;
6852;SDS011;3465;42.144;24.722;2023-06-05T15:13:48;5.57;;;2.78;;
6852;SDS011;3465;42.144;24.722;2023-06-05T15:16:13;4.50;;;2.50;;
6852;SDS011;3465;42.144;24.722;2023-06-05T15:18:38;13.10;;;2.70;;
6852;SDS011;3465;42.144;24.722;2023-06-05T15:21:04;7.85;;;2.80;;
6852;SDS011;3465;42.144;24.722;2023-06-05T15:23:29;7.18;;;2.83;;
6852;SDS011;3465;42.144;24.722;2023-06-05T15:25:55;7.32;;;2.95;;
6852;SDS011;3465;42.144;24.722;2023-06-05T15:28:20;4.63;;;2.30;;
6852;SDS011;3465;42.144;24.722;2023-06-05T15:30:45;4.93;;;2.70;;
6852;SDS011;3465;42.144;24.722;2023-06-05T15:33:13;4.30;;;2.42;;
6852;SDS011;3465;42.144;24.722;2023-06-05T15:35:40;7.90;;;2.40;;